Time;durP1;ratioP1;P1;durP2;ratioP2;P2;SDS_P1;SDS_P2;PMS_P1;PMS_P2;Temp;Humidity;BMP_temperature;BMP_pressure;BME280_temperature;BME280_humidity;BME280_pressure;Samples;Min_cycle;Max_cycle;Signal;HPM_P1;HPM_P2
2023/08/01 00:00:07;;;;;;;3.13;2.80;;;;;;;-143.21;61.78;71172.00;5113284;27;20633;-79
2023/08/01 00:02:34;;;;;;;3.35;2.50;;;;;;;-143.21;62.30;71183.91;5111034;27;20592;-79
2023/08/01 00:05:01;;;;;;;5.93;2.95;;;;;;;-143.21;62.27;71183.91;5113717;27;20204;-79
2023/08/01 00:07:28;;;;;;;3.20;2.90;;;;;;;-143.21;62.57;71197.78;5110255;27;20701;-79
2023/08/01 00:09:55;;;;;;;3.90;2.58;;;;;;;-143.21;62.85;71205.72;5117570;27;20222;-79
2023/08/01 00:12:22;;;;;;;3.40;2.90;;;;;;;-143.21;62.75;71207.69;5113817;27;20199;-79
2023/08/01 00:14:51;;;;;;;4.80;3.05;;;;;;;-143.21;62.88;71207.69;5113721;27;20685;-80
2023/08/01 00:17:17;;;;;;;3.85;2.80;;;;;;;-143.21;62.96;71213.66;5110344;27;20643;-80
2023/08/01 00:19:44;;;;;;;3.17;2.88;;;;;;;-143.21;62.87;71211.66;5110090;28;20203;-80
2023/08/01 00:22:11;;;;;;;3.88;2.70;;;;;;;-143.21;63.04;71213.66;5113339;27;20235;-80
2023/08/01 00:24:38;;;;;;;5.13;3.03;;;;;;;-143.21;62.68;71197.78;5113254;27;20196;-79
2023/08/01 00:27:08;;;;;;;3.00;2.70;;;;;;;-143.21;62.43;71187.88;5110449;27;20210;-78
2023/08/01 00:29:35;;;;;;;5.18;2.83;;;;;;;-143.21;62.04;71183.91;5113634;27;20200;-78
2023/08/01 00:32:04;;;;;;;6.40;2.53;;;;;;;-143.21;62.37;71189.84;5110299;27;20689;-80
2023/08/01 00:34:31;;;;;;;2.90;2.70;;;;;;;-143.21;62.41;71191.84;5115369;27;20211;-77
2023/08/01 00:36:58;;;;;;;5.57;3.17;;;;;;;-143.21;62.31;71189.84;5113488;27;20219;-78
2023/08/01 00:39:25;;;;;;;5.00;3.22;;;;;;;-143.21;62.36;71189.84;5112978;27;20595;-78
2023/08/01 00:41:51;;;;;;;3.72;2.95;;;;;;;-143.21;62.25;71191.84;5120745;27;20235;-79
2023/08/01 00:44:18;;;;;;;8.23;3.65;;;;;;;-143.21;62.36;71189.84;5113283;27;20196;-80
2023/08/01 00:46:45;;;;;;;5.13;3.00;;;;;;;-143.21;61.96;71185.88;5114698;27;20204;-80
2023/08/01 00:49:14;;;;;;;3.63;2.90;;;;;;;-143.21;62.10;71193.81;5119125;27;20248;-80
2023/08/01 00:51:41;;;;;;;4.95;2.90;;;;;;;-143.21;62.01;71185.88;5109155;27;20232;-80
2023/08/01 00:54:08;;;;;;;2.95;2.65;;;;;;;-143.21;61.52;71160.13;5113209;27;20203;-80
2023/08/01 00:56:36;;;;;;;2.90;2.70;;;;;;;-143.21;60.75;71144.25;5109982;27;20662;-80
2023/08/01 00:59:03;;;;;;;3.10;2.80;;;;;;;-143.21;60.23;71144.25;5112710;27;20220;-79
2023/08/01 01:01:30;;;;;;;2.60;2.40;;;;;;;-143.21;60.44;71140.28;5113092;27;20240;-81
2023/08/01 01:03:57;;;;;;;3.47;2.97;;;;;;;-143.21;59.94;71136.31;5110188;27;20638;-78
2023/08/01 01:06:29;;;;;;;3.28;2.78;;;;;;;-143.21;60.63;71160.13;5109339;28;20199;-78
2023/08/01 01:08:56;;;;;;;4.45;2.53;;;;;;;-143.21;60.52;71166.06;5114944;27;20236;-78
2023/08/01 01:11:23;;;;;;;3.55;2.55;;;;;;;-143.21;60.47;71168.06;5110954;27;20218;-78
2023/08/01 01:13:52;;;;;;;4.80;2.63;;;;;;;-143.21;60.19;71156.16;5113796;27;20206;-78
2023/08/01 01:16:19;;;;;;;4.38;2.88;;;;;;;-143.21;60.17;71158.13;5109479;27;20196;-78
2023/08/01 01:18:46;;;;;;;4.05;2.72;;;;;;;-143.21;60.63;71166.06;5112540;27;20203;-78
2023/08/01 01:21:14;;;;;;;3.17;2.88;;;;;;;-143.21;60.50;71170.03;5108760;28;20698;-79
2023/08/01 01:23:42;;;;;;;5.15;3.13;;;;;;;-143.21;60.78;71185.88;5109137;28;20249;-79
2023/08/01 01:26:10;;;;;;;3.13;2.83;;;;;;;-143.21;61.32;71197.78;5108986;28;20196;-79
2023/08/01 01:28:38;;;;;;;6.78;2.90;;;;;;;-143.21;61.52;71215.63;5113226;27;20206;-80
2023/08/01 01:31:05;;;;;;;3.10;2.47;;;;;;;-143.21;61.89;71221.56;5112805;28;20203;-79
2023/08/01 01:33:32;;;;;;;5.03;3.05;;;;;;;-143.21;61.86;71231.50;5119298;27;20218;-79
2023/08/01 01:36:01;;;;;;;3.10;2.80;;;;;;;-143.21;61.68;71217.59;5112202;28;20207;-78
2023/08/01 01:38:29;;;;;;;3.95;2.63;;;;;;;-143.21;61.68;71217.59;5112495;28;20212;-78
2023/08/01 01:40:56;;;;;;;7.60;2.63;;;;;;;-143.21;61.29;71213.66;5111878;27;20208;-79
2023/08/01 01:43:23;;;;;;;4.13;2.38;;;;;;;-143.21;61.49;71219.59;5112663;28;20203;-80
2023/08/01 01:45:50;;;;;;;3.28;2.55;;;;;;;-143.21;61.44;71213.66;5112270;28;20257;-79
2023/08/01 01:48:16;;;;;;;4.45;3.13;;;;;;;-143.21;60.97;71199.78;5113171;28;20216;-79
2023/08/01 01:50:43;;;;;;;3.45;2.90;;;;;;;-143.21;61.01;71213.66;5111441;28;20253;-79
2023/08/01 01:53:10;;;;;;;4.95;2.55;;;;;;;-143.21;61.01;71215.63;5112091;28;20206;-79
2023/08/01 01:55:39;;;;;;;4.43;2.80;;;;;;;-143.21;61.04;71221.56;5111100;28;20200;-79
2023/08/01 01:58:07;;;;;;;4.50;2.75;;;;;;;-143.21;60.99;71217.59;5109747;28;20200;-79
2023/08/01 02:00:33;;;;;;;4.82;2.75;;;;;;;-143.21;60.68;71213.66;5120217;28;20235;-79
2023/08/01 02:03:02;;;;;;;4.00;2.97;;;;;;;-143.21;60.65;71215.63;5106121;28;20216;-79
2023/08/01 02:05:29;;;;;;;3.92;2.83;;;;;;;-143.21;60.89;71213.66;5110355;28;20276;-78
2023/08/01 02:07:56;;;;;;;6.85;3.00;;;;;;;-143.21;60.75;71195.81;5112830;28;20562;-78
2023/08/01 02:10:23;;;;;;;3.40;2.80;;;;;;;-143.21;59.77;71170.03;5116778;28;20207;-78
2023/08/01 02:12:51;;;;;;;5.32;3.00;;;;;;;-143.21;59.59;71152.19;5113316;28;20203;-78
2023/08/01 02:15:18;;;;;;;3.78;2.67;;;;;;;-143.21;58.58;71138.31;5109743;28;20203;-79
2023/08/01 02:17:45;;;;;;;7.00;2.70;;;;;;;-143.21;58.54;71148.22;5110660;27;20214;-79
2023/08/01 02:20:12;;;;;;;4.78;2.58;;;;;;;-143.21;58.92;71152.19;5110331;28;20204;-79
2023/08/01 02:22:39;;;;;;;4.32;2.50;;;;;;;-143.21;59.05;71168.06;5105096;28;20227;-79
2023/08/01 02:25:06;;;;;;;7.10;3.00;;;;;;;-143.21;59.31;71166.06;5113428;27;20200;-79
2023/08/01 02:27:34;;;;;;;4.00;2.97;;;;;;;-143.21;58.76;71168.06;5113179;27;20618;-79
2023/08/01 02:30:02;;;;;;;4.28;2.63;;;;;;;-143.21;59.26;71168.06;5110741;27;20204;-80
2023/08/01 02:32:29;;;;;;;3.92;3.08;;;;;;;-143.21;58.95;71172.00;5117156;27;20679;-79
2023/08/01 02:34:56;;;;;;;4.90;3.13;;;;;;;-143.21;59.00;71179.94;5111172;27;20611;-80
2023/08/01 02:37:23;;;;;;;6.00;3.53;;;;;;;-143.21;59.02;71179.94;5115834;27;20196;-79
2023/08/01 02:39:49;;;;;;;7.10;3.53;;;;;;;-143.21;59.19;71185.88;5111724;27;20199;-80
2023/08/01 02:42:16;;;;;;;4.50;3.17;;;;;;;-143.21;59.21;71191.84;5113014;27;20589;-81
2023/08/01 02:44:43;;;;;;;6.18;3.38;;;;;;;-143.21;59.10;71197.78;5117125;27;20200;-80
2023/08/01 02:47:11;;;;;;;6.25;3.35;;;;;;;-143.21;59.02;71197.78;5113485;27;20208;-83
2023/08/01 02:49:38;;;;;;;5.38;3.40;;;;;;;-143.21;59.22;71215.63;5118417;27;20226;-84
2023/08/01 02:52:05;;;;;;;4.13;3.13;;;;;;;-143.21;59.52;71229.50;5113961;27;20235;-85
2023/08/01 02:54:32;;;;;;;5.80;3.30;;;;;;;-143.21;60.33;71251.31;5110177;28;20208;-84
2023/08/01 02:56:59;;;;;;;6.18;2.80;;;;;;;-143.21;60.52;71271.13;5114006;27;20204;-84
2023/08/01 02:59:25;;;;;;;5.40;3.08;;;;;;;-143.21;60.97;71287.00;5115346;27;20624;-83
2023/08/01 03:01:52;;;;;;;6.35;3.25;;;;;;;-143.21;61.23;71288.97;5110765;27;20714;-83
2023/08/01 03:04:20;;;;;;;9.60;3.50;;;;;;;-143.21;61.08;71288.97;5114111;27;20192;-83
2023/08/01 03:06:47;;;;;;;15.82;12.25;;;;;;;-143.21;60.92;71302.84;5111243;27;20219;-83
2023/08/01 03:09:14;;;;;;;11.07;9.18;;;;;;;-143.21;60.95;71294.94;5113335;27;20206;-83
2023/08/01 03:11:41;;;;;;;7.88;4.97;;;;;;;-143.21;60.93;71296.91;5115175;27;20207;-83
2023/08/01 03:14:07;;;;;;;9.75;7.28;;;;;;;-143.21;61.68;71294.94;5114062;27;20563;-83
2023/08/01 03:16:34;;;;;;;12.50;7.47;;;;;;;-143.21;61.89;71296.91;5114358;27;20739;-83
2023/08/01 03:19:04;;;;;;;6.47;5.18;;;;;;;-143.21;61.98;71296.91;5114210;27;20582;-83
2023/08/01 03:21:33;;;;;;;7.30;4.40;;;;;;;-143.21;62.13;71304.84;5113836;27;20295;-83
2023/08/01 03:24:00;;;;;;;8.25;4.00;;;;;;;-143.21;62.12;71304.84;5115804;27;20613;-83
2023/08/01 03:26:28;;;;;;;8.02;3.88;;;;;;;-143.21;61.78;71306.81;5119442;27;20200;-82
2023/08/01 03:28:55;;;;;;;6.50;4.28;;;;;;;-143.21;61.83;71302.84;5118920;27;20202;-81
2023/08/01 03:31:22;;;;;;;6.50;3.70;;;;;;;-143.21;61.31;71308.81;5112052;27;20196;-81
2023/08/01 03:33:49;;;;;;;8.60;3.65;;;;;;;-143.21;61.18;71312.78;5119274;27;20243;-82
2023/08/01 03:36:15;;;;;;;9.75;3.70;;;;;;;-143.21;61.15;71308.81;5111060;27;20234;-83
2023/08/01 03:38:44;;;;;;;8.15;3.17;;;;;;;-143.21;61.03;71292.94;5111608;27;20204;-81
2023/08/01 03:41:12;;;;;;;8.23;3.75;;;;;;;-143.21;60.19;71267.19;5109063;27;20207;-82
2023/08/01 03:43:38;;;;;;;6.63;3.60;;;;;;;-143.21;60.67;71259.25;5114504;27;20223;-83
2023/08/01 03:46:05;;;;;;;4.53;3.28;;;;;;;-143.21;61.55;71267.19;5113444;27;20211;-82
2023/08/01 03:48:32;;;;;;;6.50;3.40;;;;;;;-143.21;62.35;71277.09;5110112;27;20227;-82
2023/08/01 03:51:00;;;;;;;5.88;3.90;;;;;;;-143.21;63.15;71300.88;5112707;27;21405;-83
2023/08/01 03:53:27;;;;;;;10.23;4.43;;;;;;;-143.21;63.76;71306.81;5117049;27;20211;-82
2023/08/01 03:55:55;;;;;;;5.32;4.00;;;;;;;-143.21;63.76;71308.81;5112733;27;20220;-81
2023/08/01 03:58:22;;;;;;;5.07;4.10;;;;;;;-143.21;63.97;71312.78;5117199;27;20640;-82
2023/08/01 04:00:49;;;;;;;6.82;3.90;;;;;;;-143.21;64.56;71324.66;5115542;27;20553;-83
2023/08/01 04:03:16;;;;;;;6.65;4.38;;;;;;;-143.21;64.92;71338.53;5118158;27;20223;-82
2023/08/01 04:05:42;;;;;;;8.05;5.20;;;;;;;-143.21;65.74;71354.41;5112918;27;20879;-82
2023/08/01 04:08:09;;;;;;;8.30;4.57;;;;;;;-143.21;65.83;71366.31;5117248;27;20234;-82
2023/08/01 04:10:36;;;;;;;8.05;4.18;;;;;;;-143.21;66.05;71372.25;5114502;27;20582;-82
2023/08/01 04:13:04;;;;;;;6.88;3.90;;;;;;;-143.21;66.46;71380.19;5113829;27;20222;-82
2023/08/01 04:15:31;;;;;;;7.40;4.03;;;;;;;-143.21;66.63;71382.16;5118288;27;20204;-82
2023/08/01 04:17:58;;;;;;;7.20;3.90;;;;;;;-143.21;66.72;71384.16;5112285;27;20210;-82
2023/08/01 04:20:25;;;;;;;5.90;3.97;;;;;;;-143.21;66.93;71396.03;5109099;27;21028;-82
2023/08/01 04:22:51;;;;;;;8.18;3.50;;;;;;;-143.21;66.51;71368.28;5111321;27;20211;-81
2023/08/01 04:25:18;;;;;;;7.38;3.67;;;;;;;-143.21;65.68;71352.44;5111608;27;20211;-83
2023/08/01 04:27:45;;;;;;;6.82;3.95;;;;;;;-143.21;65.29;71346.47;5108365;27;20207;-83
2023/08/01 04:30:14;;;;;;;7.05;3.58;;;;;;;-143.21;65.43;71360.34;5116330;27;20219;-82
2023/08/01 04:32:40;;;;;;;5.90;4.30;;;;;;;-143.21;66.06;71376.22;5108747;28;20283;-83
2023/08/01 04:35:08;;;;;;;8.63;4.10;;;;;;;-143.21;66.75;71382.16;5115824;27;20208;-83
2023/08/01 04:37:35;;;;;;;5.15;3.78;;;;;;;-143.21;66.63;71378.19;5109364;27;20590;-82
2023/08/01 04:40:01;;;;;;;4.70;4.00;;;;;;;-143.21;66.82;71382.16;5113877;27;20206;-82
2023/08/01 04:42:28;;;;;;;4.72;4.03;;;;;;;-143.21;66.64;71380.19;5119539;27;20318;-82
2023/08/01 04:44:55;;;;;;;5.68;3.97;;;;;;;-143.21;66.53;71378.19;5113189;27;20207;-82
2023/08/01 04:47:24;;;;;;;4.50;3.95;;;;;;;-143.21;66.29;71372.25;5116483;27;20196;-82
2023/08/01 04:49:51;;;;;;;8.40;4.15;;;;;;;-143.21;66.46;71370.28;5108683;27;20211;-82
2023/08/01 04:52:18;;;;;;;4.20;3.80;;;;;;;-143.21;66.68;71372.25;5112105;27;20717;-83
2023/08/01 04:54:45;;;;;;;8.45;3.90;;;;;;;-143.21;66.56;71368.28;5114126;27;20291;-82
2023/08/01 04:57:11;;;;;;;7.93;4.28;;;;;;;-143.21;66.10;71352.44;5111776;27;20203;-82
2023/08/01 04:59:38;;;;;;;6.28;4.00;;;;;;;-143.21;65.10;71318.72;5112644;27;20196;-82
2023/08/01 05:02:07;;;;;;;11.07;4.20;;;;;;;-143.21;64.28;71310.78;5107329;27;20211;-83
2023/08/01 05:04:36;;;;;;;8.02;4.28;;;;;;;-143.21;64.64;71332.59;5112228;27;20237;-83
2023/08/01 05:07:02;;;;;;;5.25;4.00;;;;;;;-143.21;64.99;71328.63;5112338;27;20615;-84
2023/08/01 05:09:29;;;;;;;5.93;4.05;;;;;;;-143.21;65.38;71348.47;5107648;28;20227;-83
2023/08/01 05:11:56;;;;;;;6.72;4.13;;;;;;;-143.21;65.76;71346.47;5110132;27;20259;-82
2023/08/01 05:14:23;;;;;;;10.52;4.18;;;;;;;-143.21;65.99;71350.44;5114317;27;20196;-82
2023/08/01 05:16:49;;;;;;;6.03;4.50;;;;;;;-143.21;65.86;71352.44;5107724;27;20215;-82
2023/08/01 05:19:16;;;;;;;7.25;3.78;;;;;;;-143.21;66.24;71348.47;5111455;27;20264;-84
2023/08/01 05:21:46;;;;;;;6.38;4.15;;;;;;;-143.21;65.23;71346.47;5109691;27;20196;-83
2023/08/01 05:24:13;;;;;;;9.73;4.00;;;;;;;-143.21;64.41;71342.50;5106116;27;20610;-84
2023/08/01 05:26:39;;;;;;;6.68;4.20;;;;;;;-143.21;64.07;71336.56;5107690;28;20204;-84
2023/08/01 05:29:06;;;;;;;7.22;4.10;;;;;;;-143.21;64.23;71328.63;5111629;27;20260;-82
2023/08/01 05:31:33;;;;;;;5.47;4.10;;;;;;;-143.21;64.64;71312.78;5111287;28;20208;-83
2023/08/01 05:34:00;;;;;;;4.43;3.78;;;;;;;-143.21;63.59;71277.09;5113247;27;20195;-82
2023/08/01 05:36:27;;;;;;;6.60;3.88;;;;;;;-143.21;62.32;71255.28;5112427;28;20698;-84
2023/08/01 05:38:55;;;;;;;5.25;4.03;;;;;;;-143.21;62.02;71259.25;5107919;28;20689;-84
2023/08/01 05:41:22;;;;;;;9.98;3.72;;;;;;;-143.21;61.61;71261.22;5106625;28;20739;-84
2023/08/01 05:43:49;;;;;;;6.30;3.63;;;;;;;-143.21;61.71;71267.19;5108463;28;20211;-83
2023/08/01 05:46:16;;;;;;;8.35;4.07;;;;;;;-143.21;61.88;71265.19;5111111;28;20207;-82
2023/08/01 05:48:43;;;;;;;5.80;3.90;;;;;;;-143.21;61.98;71275.09;5109725;28;20192;-83
2023/08/01 05:51:10;;;;;;;10.52;3.70;;;;;;;-143.21;62.41;71277.09;5113561;27;20233;-83
2023/08/01 05:53:36;;;;;;;8.02;3.42;;;;;;;-143.21;61.33;71281.06;5104822;28;20199;-83
2023/08/01 05:56:05;;;;;;;5.35;3.20;;;;;;;-143.21;60.92;71275.09;5110528;28;20211;-83
2023/08/01 05:58:32;;;;;;;4.90;3.00;;;;;;;-143.21;60.56;71263.22;5111602;27;20683;-83
2023/08/01 06:00:59;;;;;;;8.77;3.67;;;;;;;-143.21;60.50;71255.28;5115212;27;20220;-84
2023/08/01 06:03:26;;;;;;;5.15;3.30;;;;;;;-143.21;60.47;71237.44;5116318;27;20311;-83
2023/08/01 06:05:53;;;;;;;5.32;3.20;;;;;;;-143.21;59.47;71219.59;5120003;27;20211;-84
2023/08/01 06:08:20;;;;;;;7.65;3.38;;;;;;;-143.21;57.46;71179.94;5115703;27;20196;-83
2023/08/01 06:10:46;;;;;;;8.55;3.33;;;;;;;-143.21;57.33;71146.25;5123670;27;20213;-83
2023/08/01 06:13:15;;;;;;;5.10;2.95;;;;;;;-143.21;56.77;71146.25;5113366;27;20535;-82
2023/08/01 06:15:41;;;;;;;4.75;2.95;;;;;;;-143.21;56.35;71152.19;5120605;27;20206;-83
2023/08/01 06:18:08;;;;;;;6.40;3.20;;;;;;;-143.21;56.48;71164.09;5111733;27;20203;-83
2023/08/01 06:20:35;;;;;;;4.97;3.47;;;;;;;-143.21;56.64;71172.00;5119168;27;20248;-82
2023/08/01 06:23:02;;;;;;;5.60;3.13;;;;;;;-143.21;57.41;71175.97;5112957;27;20220;-80
2023/08/01 06:25:29;;;;;;;5.82;3.65;;;;;;;-143.21;57.57;71172.00;5117052;27;21068;-84
2023/08/01 06:27:55;;;;;;;6.18;3.10;;;;;;;-143.21;57.04;71164.09;5113997;27;20208;-84
2023/08/01 06:30:24;;;;;;;6.13;3.08;;;;;;;-143.21;56.56;71148.22;5110790;27;20643;-82
2023/08/01 06:32:50;;;;;;;3.60;2.92;;;;;;;-143.21;55.75;71138.31;5118128;27;20670;-83
2023/08/01 06:35:17;;;;;;;4.13;3.05;;;;;;;-143.21;54.80;71134.34;5113457;27;20659;-82
2023/08/01 06:37:44;;;;;;;6.60;3.08;;;;;;;-143.21;54.71;71126.41;5110534;28;20204;-82
2023/08/01 06:40:13;;;;;;;3.83;2.80;;;;;;;-143.21;54.44;71120.47;5117576;27;20200;-83
2023/08/01 06:42:41;;;;;;;6.22;3.00;;;;;;;-143.21;53.52;71074.88;5110320;27;20200;-81
2023/08/01 06:45:08;;;;;;;5.15;3.30;;;;;;;-143.21;53.15;71053.06;5115143;27;20626;-81
2023/08/01 06:47:36;;;;;;;5.07;3.10;;;;;;;-143.21;53.40;71039.19;5117429;27;20666;-83
2023/08/01 06:50:04;;;;;;;5.28;3.22;;;;;;;-143.21;53.54;71031.25;5110949;27;20207;-82
2023/08/01 06:52:31;;;;;;;9.15;3.10;;;;;;;-143.21;52.72;71035.22;5110992;27;20752;-83
2023/08/01 06:54:58;;;;;;;6.90;3.60;;;;;;;-143.21;53.03;71045.13;5110854;27;20204;-83
2023/08/01 06:57:25;;;;;;;9.32;3.40;;;;;;;-143.21;52.93;71043.16;5115248;27;20348;-83
2023/08/01 06:59:52;;;;;;;4.50;3.15;;;;;;;-143.21;53.72;71066.94;5124540;27;20639;-85
2023/08/01 07:02:18;;;;;;;5.30;3.28;;;;;;;-143.21;53.61;71068.94;5115200;27;20207;-84
2023/08/01 07:04:47;;;;;;;4.80;3.25;;;;;;;-143.21;53.67;71053.06;5117133;27;20227;-85
2023/08/01 07:07:13;;;;;;;4.88;3.33;;;;;;;-143.21;53.54;71035.22;5116902;27;20249;-84
2023/08/01 07:09:40;;;;;;;5.88;3.33;;;;;;;-143.21;53.46;71021.34;5112668;27;20208;-83
2023/08/01 07:12:08;;;;;;;6.35;3.42;;;;;;;-143.21;52.71;71013.41;5114780;27;20203;-85
2023/08/01 07:14:34;;;;;;;7.93;3.17;;;;;;;-143.21;52.74;71005.50;5109904;28;20581;-83
2023/08/01 07:17:01;;;;;;;6.25;4.40;;;;;;;-143.21;52.37;70999.53;5117772;27;20200;-83
2023/08/01 07:19:29;;;;;;;6.60;3.38;;;;;;;-143.21;52.44;70997.56;5113188;27;20794;-84
2023/08/01 07:21:57;;;;;;;4.07;3.38;;;;;;;-143.21;52.67;70981.69;5116592;27;20222;-83
2023/08/01 07:24:23;;;;;;;9.25;3.08;;;;;;;-143.21;52.72;70971.78;5108460;27;20583;-83
2023/08/01 07:26:50;;;;;;;7.10;3.03;;;;;;;-143.21;52.51;70959.91;5114080;27;20582;-83
2023/08/01 07:29:17;;;;;;;7.70;3.90;;;;;;;-143.21;52.64;70948.00;5113880;27;20636;-83
2023/08/01 07:31:44;;;;;;;5.40;3.67;;;;;;;-143.21;52.84;70938.09;5116783;27;20199;-82
2023/08/01 07:34:11;;;;;;;8.50;3.40;;;;;;;-143.21;52.25;70924.22;5117575;27;20263;-88
2023/08/01 07:36:37;;;;;;;9.35;3.67;;;;;;;-143.21;52.27;70918.25;5106703;28;20207;-84
2023/08/01 07:39:06;;;;;;;7.75;3.10;;;;;;;-143.21;51.82;70910.34;5116680;27;20204;-83
2023/08/01 07:41:34;;;;;;;6.45;3.70;;;;;;;-143.21;51.88;70904.38;5111127;27;20204;-83
2023/08/01 07:44:02;;;;;;;6.43;3.40;;;;;;;-143.21;52.17;70896.47;5119280;27;20230;-83
2023/08/01 07:46:29;;;;;;;5.45;3.15;;;;;;;-143.21;51.99;70888.53;5119833;27;20212;-85
2023/08/01 07:48:56;;;;;;;5.53;3.13;;;;;;;-143.21;52.01;70872.66;5110715;27;20663;-83
2023/08/01 07:51:23;;;;;;;6.18;3.70;;;;;;;-143.21;51.66;70874.66;5115118;27;20236;-83
2023/08/01 07:53:52;;;;;;;8.85;3.40;;;;;;;-143.21;51.64;70886.53;5114150;27;20250;-83
2023/08/01 07:56:20;;;;;;;6.60;3.40;;;;;;;-143.21;52.32;70890.50;5114396;27;20222;-81
2023/08/01 07:58:47;;;;;;;11.25;6.10;;;;;;;-143.21;52.23;70862.75;5113709;27;20728;-81
2023/08/01 08:01:14;;;;;;;7.28;3.60;;;;;;;-143.21;52.12;70862.75;5111571;27;20203;-82
2023/08/01 08:03:40;;;;;;;5.25;3.20;;;;;;;-143.21;52.49;70850.88;5111797;27;20235;-81
2023/08/01 08:06:07;;;;;;;9.25;3.60;;;;;;;-143.21;51.82;70835.00;5116323;27;20200;-81
2023/08/01 08:08:36;;;;;;;4.80;2.90;;;;;;;-143.21;52.08;70825.09;5109305;27;20196;-83
2023/08/01 08:11:03;;;;;;;6.15;3.22;;;;;;;-143.21;51.91;70821.13;5113890;27;20284;-81
2023/08/01 08:13:31;;;;;;;7.00;3.63;;;;;;;-143.21;52.06;70815.19;5111182;27;20330;-81
2023/08/01 08:15:58;;;;;;;5.05;3.30;;;;;;;-143.21;53.12;70805.28;5108874;27;21211;-84
2023/08/01 08:18:26;;;;;;;7.97;3.90;;;;;;;-143.21;51.75;70773.56;5112461;27;20227;-84
2023/08/01 08:20:53;;;;;;;6.93;3.63;;;;;;;-143.21;50.86;70741.84;5113020;27;20291;-84
2023/08/01 08:23:20;;;;;;;4.85;3.70;;;;;;;-143.21;50.23;70743.81;5106136;27;20228;-83
2023/08/01 08:25:49;;;;;;;5.82;3.75;;;;;;;-143.21;49.90;70733.91;5108945;28;20257;-82
2023/08/01 08:28:28;;;;;;;6.80;3.78;;;;;;;-143.21;49.98;70722.03;5108528;28;20208;-83
2023/08/01 08:30:56;;;;;;;7.25;3.35;;;;;;;-143.21;49.51;70706.16;5108523;27;20199;-82
2023/08/01 08:33:23;;;;;;;5.30;3.55;;;;;;;-143.21;49.76;70698.22;5111916;27;20237;-83
2023/08/01 08:35:50;;;;;;;8.73;3.72;;;;;;;-143.21;49.11;70694.25;5112581;27;20674;-83
2023/08/01 08:38:18;;;;;;;6.88;4.50;;;;;;;-143.21;49.00;70676.44;5112026;27;20296;-82
2023/08/01 08:40:57;;;;;;;10.18;3.40;;;;;;;-143.21;49.08;70676.44;5112640;27;20196;-82
2023/08/01 08:43:24;;;;;;;5.50;3.55;;;;;;;-143.21;49.01;70682.38;5113286;27;20292;-82
2023/08/01 08:45:54;;;;;;;5.55;4.05;;;;;;;-143.21;49.31;70686.34;5111761;27;20644;-83
2023/08/01 08:48:22;;;;;;;10.68;4.13;;;;;;;-143.21;48.85;70668.50;5107898;28;20675;-82
2023/08/01 08:50:51;;;;;;;7.35;3.95;;;;;;;-143.21;48.86;70660.56;5111818;27;20204;-83
2023/08/01 08:53:19;;;;;;;5.95;3.80;;;;;;;-143.21;48.64;70638.75;5111634;27;20572;-83
2023/08/01 08:55:46;;;;;;;9.10;3.90;;;;;;;-143.21;48.71;70614.97;5109232;28;20578;-84
2023/08/01 08:58:13;;;;;;;6.07;3.60;;;;;;;-143.21;48.27;70603.09;5112805;27;20666;-84
2023/08/01 09:00:41;;;;;;;9.27;4.05;;;;;;;-143.21;47.58;70593.19;5112693;27;20208;-85
2023/08/01 09:03:07;;;;;;;6.32;4.00;;;;;;;-143.21;47.68;70593.19;5116399;27;20615;-84
2023/08/01 09:05:45;;;;;;;3.83;3.30;;;;;;;-143.21;46.51;70569.38;5109327;27;20246;-83
2023/08/01 09:08:20;;;;;;;7.00;3.67;;;;;;;-143.21;46.79;70561.47;5108781;28;20211;-83
2023/08/01 09:10:47;;;;;;;9.07;3.70;;;;;;;-143.21;46.81;70561.47;5114331;27;20227;-83
2023/08/01 09:13:15;;;;;;;6.45;3.55;;;;;;;-143.21;47.20;70563.44;5109170;27;20257;-83
2023/08/01 09:15:43;;;;;;;12.63;3.60;;;;;;;-143.21;45.92;70545.59;5111668;27;20199;-82
2023/08/01 09:18:10;;;;;;;10.23;3.97;;;;;;;-143.21;46.31;70541.63;5108748;28;20238;-82
2023/08/01 09:20:49;;;;;;;6.35;4.13;;;;;;;-143.21;46.92;70543.63;5115913;27;20622;-82
2023/08/01 09:23:16;;;;;;;7.65;3.85;;;;;;;-143.21;47.05;70549.56;5103586;27;20199;-82
2023/08/01 09:25:44;;;;;;;6.88;3.70;;;;;;;-143.21;46.75;70555.50;5110077;28;20582;-85
2023/08/01 09:28:18;;;;;;;7.13;4.00;;;;;;;-143.21;46.74;70567.41;5114975;27;20203;-84
2023/08/01 09:30:49;;;;;;;13.35;4.40;;;;;;;-143.21;47.24;70559.47;5115304;27;20588;-82
2023/08/01 09:33:16;;;;;;;6.13;4.13;;;;;;;-143.21;47.38;70545.59;5108652;27;20200;-83
2023/08/01 09:35:44;;;;;;;8.15;3.75;;;;;;;-143.21;46.66;70515.88;5114713;27;20224;-85
2023/08/01 09:38:13;;;;;;;9.23;4.03;;;;;;;-143.21;46.11;70484.16;5114666;28;20747;-84
2023/08/01 09:40:41;;;;;;;6.65;3.67;;;;;;;-143.21;46.66;70466.31;5108027;28;20210;-86
2023/08/01 09:43:08;;;;;;;6.13;3.90;;;;;;;-143.21;45.29;70438.56;5115304;27;20211;-86
2023/08/01 09:45:35;;;;;;;5.30;3.92;;;;;;;-143.21;44.46;70404.88;5111817;28;20632;-84
2023/08/01 09:48:02;;;;;;;6.40;4.10;;;;;;;-143.21;44.28;70406.84;5111387;28;20227;-85
2023/08/01 09:50:29;;;;;;;4.97;3.90;;;;;;;-143.21;44.25;70398.94;5112042;28;20706;-82
2023/08/01 09:52:56;;;;;;;6.78;3.95;;;;;;;-143.21;44.85;70383.06;5111461;28;20239;-83
2023/08/01 09:55:31;;;;;;;6.50;4.03;;;;;;;-143.21;44.42;70369.19;5111618;28;20196;-86
2023/08/01 09:57:59;;;;;;;6.30;3.80;;;;;;;-143.21;43.38;70371.19;5111690;28;20294;-80
2023/08/01 10:00:27;;;;;;;5.85;3.85;;;;;;;-143.21;44.00;70375.16;5114487;28;20199;-84
2023/08/01 10:02:55;;;;;;;7.95;4.50;;;;;;;-143.21;44.23;70373.16;5109484;28;20688;-85
2023/08/01 10:05:23;;;;;;;7.93;4.50;;;;;;;-143.21;43.93;70353.34;5115750;28;20623;-84
2023/08/01 10:07:55;;;;;;;7.53;3.70;;;;;;;-143.21;43.61;70331.53;5109150;28;20635;-85
2023/08/01 10:10:22;;;;;;;6.15;4.03;;;;;;;-143.21;43.80;70315.69;5107478;28;20277;-83
2023/08/01 10:12:51;;;;;;;6.65;4.28;;;;;;;-143.21;42.45;70301.81;5108470;28;20260;-84
2023/08/01 10:15:19;;;;;;;8.30;4.70;;;;;;;-143.21;43.37;70303.78;5105984;28;20212;-81
2023/08/01 10:17:46;;;;;;;11.85;4.60;;;;;;;-143.21;43.02;70297.84;5111013;28;20199;-81
2023/08/01 10:20:15;;;;;;;7.38;4.10;;;;;;;-143.21;42.58;70260.19;5110512;28;20188;-82
2023/08/01 10:22:42;;;;;;;7.55;4.35;;;;;;;-143.21;42.09;70214.59;5105817;28;20200;-81
2023/08/01 10:25:10;;;;;;;4.93;3.90;;;;;;;-143.21;40.93;70200.72;5112906;28;20715;-81
2023/08/01 10:27:37;;;;;;;5.57;4.47;;;;;;;-143.21;41.54;70174.97;5110947;28;20254;-82
2023/08/01 10:30:07;;;;;;;5.18;4.00;;;;;;;-143.21;41.09;70167.03;5117528;27;20195;-81
2023/08/01 10:32:35;;;;;;;9.07;3.97;;;;;;;-143.21;41.28;70147.22;5110326;27;20583;-82
2023/08/01 10:35:03;;;;;;;7.75;4.70;;;;;;;-143.21;40.86;70155.16;5110822;27;20226;-82
2023/08/01 10:37:40;;;;;;;10.32;3.80;;;;;;;-143.21;39.79;70147.22;5107226;28;20212;-81
2023/08/01 10:40:08;;;;;;;6.70;3.88;;;;;;;-143.21;39.04;70141.28;5105755;28;20253;-82
2023/08/01 10:42:39;;;;;;;5.13;3.90;;;;;;;-143.21;38.57;70145.25;5117584;28;20203;-81
2023/08/01 10:45:19;;;;;;;5.80;3.83;;;;;;;-143.21;38.92;70127.41;5112359;27;20255;-81
2023/08/01 10:47:46;;;;;;;5.70;4.50;;;;;;;-143.21;38.66;70105.59;5121642;27;20192;-81
2023/08/01 10:50:15;;;;;;;7.90;4.15;;;;;;;-143.21;38.12;70081.81;5116794;27;20199;-81
2023/08/01 10:52:42;;;;;;;6.93;3.83;;;;;;;-143.21;38.05;70067.94;5118403;27;20668;-81
2023/08/01 10:55:09;;;;;;;5.65;3.85;;;;;;;-143.21;37.94;70054.06;5118937;27;20207;-82
2023/08/01 10:57:38;;;;;;;6.00;4.10;;;;;;;-143.21;37.95;70026.31;5116277;27;20196;-82
2023/08/01 11:00:09;;;;;;;15.15;4.28;;;;;;;-143.21;37.81;70004.53;5118706;27;20203;-82
2023/08/01 11:02:39;;;;;;;7.80;3.47;;;;;;;-143.21;37.24;69998.59;5115719;27;20223;-82
2023/08/01 11:05:07;;;;;;;5.13;4.03;;;;;;;-143.21;37.10;69980.75;5115659;27;20220;-82
2023/08/01 11:07:35;;;;;;;5.82;3.40;;;;;;;-143.21;36.24;69953.00;5115104;27;20199;-81
2023/08/01 11:10:10;;;;;;;5.85;3.13;;;;;;;-143.21;35.44;69923.28;5114711;27;20758;-81
2023/08/01 11:12:38;;;;;;;6.13;3.40;;;;;;;-143.21;35.07;69921.28;5118088;27;20199;-82
2023/08/01 11:15:08;;;;;;;7.03;3.30;;;;;;;-143.21;35.08;69921.28;5108240;27;20231;-81
2023/08/01 11:17:36;;;;;;;7.25;3.92;;;;;;;-143.21;36.52;69925.25;5111736;28;20265;-87